createdAt,value
2023-05-13T00:01:39.047Z,0.60
2023-05-13T00:04:11.683Z,0.50
2023-05-13T00:06:39.724Z,0.50
2023-05-13T00:09:06.779Z,0.50
2023-05-13T00:11:34.647Z,0.50
2023-05-13T00:14:01.642Z,0.60
2023-05-13T00:16:29.399Z,0.50
2023-05-13T00:18:56.553Z,0.60
2023-05-13T00:21:23.960Z,0.50
2023-05-13T00:23:51.028Z,0.50
2023-05-13T00:26:18.390Z,0.50
2023-05-13T00:28:51.179Z,0.50
2023-05-13T00:31:18.349Z,0.50
2023-05-13T00:33:45.375Z,0.50
2023-05-13T00:36:12.586Z,0.60
2023-05-13T00:38:39.725Z,0.50
2023-05-13T00:41:09.889Z,0.60
2023-05-13T00:43:37.053Z,0.50
2023-05-13T00:46:04.793Z,0.50
2023-05-13T00:48:33.007Z,0.50
2023-05-13T00:51:00.133Z,0.50
2023-05-13T00:53:27.094Z,0.57
2023-05-13T00:55:54.154Z,0.60
2023-05-13T00:58:21.196Z,0.50
2023-05-13T01:00:51.172Z,0.50
2023-05-13T01:03:25.564Z,0.50
2023-05-13T01:06:20.762Z,0.50
2023-05-13T01:09:12.537Z,0.60
2023-05-13T01:11:44.158Z,0.60
2023-05-13T01:14:24.069Z,0.50
2023-05-13T01:16:59.483Z,0.60
2023-05-13T01:19:39.080Z,0.50
2023-05-13T01:22:07.299Z,0.60
2023-05-13T01:24:34.882Z,0.60
2023-05-13T01:27:03.766Z,0.50
2023-05-13T01:29:31.284Z,0.50
2023-05-13T01:31:59.826Z,0.50
2023-05-13T01:34:28.080Z,0.60
2023-05-13T01:36:55.427Z,0.60
2023-05-13T01:39:23.954Z,0.50
2023-05-13T01:41:53.383Z,0.50
2023-05-13T01:44:20.653Z,0.52
2023-05-13T01:46:50.305Z,0.52
2023-05-13T01:49:18.153Z,0.60
2023-05-13T01:51:46.410Z,0.60
2023-05-13T01:54:13.431Z,0.60
2023-05-13T01:56:46.467Z,0.50
2023-05-13T01:59:13.627Z,0.60
2023-05-13T02:01:46.490Z,0.60
2023-05-13T02:04:13.598Z,0.50
2023-05-13T02:06:42.069Z,0.60
2023-05-13T02:09:10.097Z,0.60
2023-05-13T02:11:40.040Z,0.60
2023-05-13T02:14:07.699Z,0.50
2023-05-13T02:16:36.069Z,0.60
2023-05-13T02:19:07.113Z,0.50
2023-05-13T02:21:43.463Z,0.60
2023-05-13T02:24:10.689Z,0.60
2023-05-13T02:26:38.289Z,0.60
2023-05-13T02:29:05.709Z,0.50
2023-05-13T02:31:33.746Z,0.50
2023-05-13T02:34:02.647Z,0.50
2023-05-13T02:36:30.477Z,0.55
2023-05-13T02:38:57.659Z,0.55
2023-05-13T02:41:24.781Z,0.50
2023-05-13T02:43:55.177Z,0.50
2023-05-13T02:46:22.585Z,0.50
2023-05-13T02:48:51.402Z,0.50
2023-05-13T02:51:18.538Z,0.50
2023-05-13T02:53:45.684Z,0.50
2023-05-13T02:56:16.326Z,0.50
2023-05-13T02:58:43.777Z,0.50
2023-05-13T03:01:11.212Z,0.60
2023-05-13T03:03:38.308Z,0.50
2023-05-13T03:06:06.325Z,0.50
2023-05-13T03:08:33.426Z,0.50
2023-05-13T03:11:01.493Z,0.50
2023-05-13T03:13:30.804Z,0.50
2023-05-13T03:15:58.572Z,0.57
2023-05-13T03:18:26.043Z,0.50
2023-05-13T03:20:54.050Z,0.50
2023-05-13T03:23:21.919Z,0.50
2023-05-13T03:25:51.252Z,0.50
2023-05-13T03:28:21.434Z,0.43
2023-05-13T03:30:49.083Z,0.40
2023-05-13T03:33:19.449Z,0.50
2023-05-13T03:35:57.042Z,0.50
2023-05-13T03:38:29.257Z,0.50
2023-05-13T03:40:56.856Z,0.50
2023-05-13T03:43:26.932Z,0.50
2023-05-13T03:45:58.997Z,0.50
2023-05-13T03:48:26.740Z,0.50
2023-05-13T03:50:56.714Z,0.50
2023-05-13T03:53:24.515Z,0.50
2023-05-13T03:55:53.177Z,0.50
2023-05-13T03:58:21.936Z,0.50
2023-05-13T04:00:50.147Z,0.50
2023-05-13T04:03:17.817Z,0.40
2023-05-13T04:05:48.589Z,0.50
2023-05-13T04:08:19.930Z,0.50
2023-05-13T04:10:47.267Z,0.50
2023-05-13T04:13:14.871Z,0.40
2023-05-13T04:15:43.597Z,0.50
2023-05-13T04:18:12.169Z,0.50
2023-05-13T04:20:39.765Z,0.50
2023-05-13T04:23:07.460Z,0.50
2023-05-13T04:25:35.591Z,0.50
2023-05-13T04:28:02.699Z,0.50
2023-05-13T04:30:36.732Z,0.40
2023-05-13T04:33:04.688Z,0.50
2023-05-13T04:35:32.920Z,0.40
2023-05-13T04:38:02.752Z,0.40
2023-05-13T04:40:32.174Z,0.40
2023-05-13T04:43:06.964Z,0.50
2023-05-13T04:45:43.772Z,0.40
2023-05-13T04:48:13.059Z,0.40
2023-05-13T04:50:48.074Z,0.40
2023-05-13T04:53:18.546Z,0.50
2023-05-13T04:55:50.076Z,0.45
2023-05-13T04:58:17.389Z,0.40
2023-05-13T05:00:47.514Z,0.40
2023-05-13T05:03:15.297Z,0.40
2023-05-13T05:05:43.971Z,0.40
2023-05-13T05:08:13.498Z,0.40
2023-05-13T05:10:40.912Z,0.40
2023-05-13T05:13:13.056Z,0.40
2023-05-13T05:15:42.054Z,0.40
2023-05-13T05:18:10.607Z,0.40
2023-05-13T05:20:42.422Z,0.40
2023-05-13T05:23:20.654Z,0.40
2023-05-13T05:25:55.167Z,0.40
2023-05-13T05:28:32.444Z,0.40
2023-05-13T05:31:00.156Z,0.40
2023-05-13T05:33:28.670Z,0.40
2023-05-13T05:35:55.795Z,0.40
2023-05-13T05:38:27.783Z,0.40
2023-05-13T05:40:57.477Z,0.40
2023-05-13T05:43:37.101Z,0.40
2023-05-13T05:46:05.247Z,0.40
2023-05-13T05:48:36.876Z,0.40
2023-05-13T05:51:05.553Z,0.40
2023-05-13T05:53:35.943Z,0.35
2023-05-13T05:56:03.368Z,0.40
2023-05-13T05:58:31.410Z,0.40
2023-05-13T06:01:00.689Z,0.40
2023-05-13T06:03:28.221Z,0.40
2023-05-13T06:05:56.583Z,0.40
2023-05-13T06:08:29.975Z,0.40
2023-05-13T06:10:58.440Z,0.40
2023-05-13T06:13:26.672Z,0.40
2023-05-13T06:15:53.848Z,0.40
2023-05-13T06:18:21.196Z,0.40
2023-05-13T06:20:48.284Z,0.40
2023-05-13T06:23:15.434Z,0.40
2023-05-13T06:25:42.493Z,0.40
2023-05-13T06:28:13.744Z,0.40
2023-05-13T06:30:44.320Z,0.40
2023-05-13T06:33:12.865Z,0.40
2023-05-13T06:35:46.248Z,0.40
2023-05-13T06:38:14.490Z,0.40
2023-05-13T06:40:41.576Z,0.30
2023-05-13T06:43:14.801Z,0.30
2023-05-13T06:45:46.439Z,0.30
2023-05-13T06:48:14.463Z,0.40
2023-05-13T06:50:41.893Z,0.30
2023-05-13T06:53:13.852Z,0.30
2023-05-13T06:55:44.139Z,0.30
2023-05-13T06:58:11.410Z,0.40
2023-05-13T07:00:40.188Z,0.30
2023-05-13T07:03:07.770Z,0.30
2023-05-13T07:05:36.492Z,0.40
2023-05-13T07:08:08.737Z,0.40
2023-05-13T07:10:36.325Z,0.40
2023-05-13T07:13:03.633Z,0.40
2023-05-13T07:15:30.984Z,0.40
2023-05-13T07:17:58.192Z,0.40
2023-05-13T07:20:27.632Z,0.40
2023-05-13T07:22:54.963Z,0.30
2023-05-13T07:25:22.143Z,0.40
2023-05-13T07:27:49.254Z,0.30
2023-05-13T07:30:16.486Z,0.40
2023-05-13T07:32:43.937Z,0.40
2023-05-13T07:35:11.125Z,0.40
2023-05-13T07:37:38.533Z,0.50
2023-05-13T07:40:06.753Z,0.40
2023-05-13T07:42:38.908Z,0.40
2023-05-13T07:45:08.203Z,0.50
2023-05-13T07:47:35.898Z,0.40
2023-05-13T07:50:03.170Z,0.40
2023-05-13T07:52:33.277Z,0.40
2023-05-13T07:55:00.457Z,0.50
2023-05-13T07:57:27.532Z,0.40
2023-05-13T07:59:54.607Z,0.40
2023-05-13T08:02:22.243Z,0.40
2023-05-13T08:04:49.605Z,0.40
2023-05-13T08:07:16.886Z,0.50
2023-05-13T08:09:44.101Z,0.50
2023-05-13T08:12:11.367Z,0.40
2023-05-13T08:14:38.459Z,0.50
2023-05-13T08:17:10.106Z,0.40
2023-05-13T08:19:46.455Z,0.50
2023-05-13T08:22:17.431Z,0.50
2023-05-13T08:25:50.101Z,0.40
2023-05-13T08:28:32.873Z,0.50
2023-05-13T08:31:02.966Z,0.50
2023-05-13T08:33:30.771Z,0.50
2023-05-13T08:35:59.678Z,0.50
2023-05-13T08:38:27.071Z,0.50
2023-05-13T08:40:55.098Z,0.50
2023-05-13T08:43:24.883Z,0.40
2023-05-13T08:45:53.729Z,0.50
2023-05-13T08:48:21.173Z,0.50
2023-05-13T08:50:48.817Z,0.40
2023-05-13T08:53:17.764Z,0.50
2023-05-13T08:55:46.137Z,0.50
2023-05-13T08:58:13.207Z,0.52
2023-05-13T09:00:40.723Z,0.50
2023-05-13T09:03:08.725Z,0.50
2023-05-13T09:05:39.251Z,0.50
2023-05-13T09:08:10.182Z,0.50
2023-05-13T09:10:38.158Z,0.50
2023-05-13T09:13:06.273Z,0.50
2023-05-13T09:15:35.774Z,0.50
2023-05-13T09:18:06.772Z,0.50
2023-05-13T09:20:35.532Z,0.50
2023-05-13T09:23:08.014Z,0.50
2023-05-13T09:25:37.099Z,0.60
2023-05-13T09:28:05.899Z,0.50
2023-05-13T09:30:41.333Z,0.50
2023-05-13T09:33:15.149Z,0.50
2023-05-13T09:35:45.224Z,0.50
2023-05-13T09:38:17.087Z,0.50
2023-05-13T09:41:02.363Z,0.50
2023-05-13T09:43:32.506Z,0.50
2023-05-13T09:46:04.824Z,0.50
2023-05-13T09:48:34.370Z,0.50
2023-05-13T09:51:01.863Z,0.50
2023-05-13T09:53:29.334Z,0.50
2023-05-13T09:55:58.875Z,0.50
2023-05-13T09:58:31.276Z,0.50
2023-05-13T10:01:01.453Z,0.50
2023-05-13T10:03:32.830Z,0.50
2023-05-13T10:06:02.230Z,0.40
2023-05-13T10:08:30.770Z,0.50
2023-05-13T10:11:00.358Z,0.50
2023-05-13T10:13:29.166Z,0.40
2023-05-13T10:15:56.449Z,0.50
2023-05-13T10:18:24.440Z,0.50
2023-05-13T10:20:53.728Z,0.40
2023-05-13T10:23:24.222Z,0.40
2023-05-13T10:25:54.391Z,0.40
2023-05-13T10:28:25.297Z,0.30
2023-05-13T10:30:52.759Z,0.40
2023-05-13T10:36:32.118Z,0.40
2023-05-13T10:39:12.058Z,0.50
2023-05-13T10:42:03.946Z,0.40
2023-05-13T10:44:36.689Z,0.50
2023-05-13T10:47:06.666Z,0.40
2023-05-13T10:49:36.261Z,0.38
2023-05-13T10:52:08.206Z,0.60
2023-05-13T10:54:40.992Z,0.40
2023-05-13T10:57:18.414Z,0.40
2023-05-13T11:00:17.919Z,0.40
2023-05-13T11:02:45.771Z,0.40
2023-05-13T11:05:22.721Z,0.40
2023-05-13T11:08:03.410Z,0.50
2023-05-13T11:10:31.422Z,0.47
2023-05-13T11:13:15.776Z,0.50
2023-05-13T11:16:00.472Z,0.40
2023-05-13T11:18:36.824Z,0.40
2023-05-13T11:21:07.612Z,0.40
2023-05-13T11:23:53.165Z,0.40
2023-05-13T11:26:28.660Z,0.40
2023-05-13T11:29:06.400Z,0.40
2023-05-13T11:31:48.495Z,0.50
2023-05-13T11:34:17.641Z,0.40
2023-05-13T11:36:48.159Z,0.50
2023-05-13T11:39:22.774Z,0.40
2023-05-13T11:42:01.625Z,0.40
2023-05-13T11:44:29.318Z,0.43
2023-05-13T11:46:58.855Z,0.40
2023-05-13T11:49:45.067Z,0.40
2023-05-13T11:52:30.021Z,0.40
2023-05-13T11:54:59.032Z,0.40
2023-05-13T11:57:27.687Z,0.40
2023-05-13T12:00:00.696Z,0.40
2023-05-13T12:02:30.802Z,0.40
2023-05-13T12:05:05.808Z,0.40
2023-05-13T12:07:35.202Z,0.40
2023-05-13T12:10:03.680Z,0.40
2023-05-13T12:12:38.505Z,0.30
2023-05-13T12:15:16.171Z,0.40
2023-05-13T12:17:44.412Z,0.40
2023-05-13T12:20:15.316Z,0.40
2023-05-13T12:22:42.715Z,0.40
2023-05-13T12:25:32.234Z,0.40
2023-05-13T12:28:11.959Z,0.40
2023-05-13T12:30:41.216Z,0.40
2023-05-13T12:33:19.784Z,0.40
2023-05-13T12:35:49.618Z,0.30
2023-05-13T12:38:18.634Z,0.30
2023-05-13T12:40:47.430Z,0.40
2023-05-13T12:43:19.069Z,0.40
2023-05-13T12:45:54.655Z,0.30
2023-05-13T12:48:25.165Z,0.40
2023-05-13T12:50:52.787Z,0.30
2023-05-13T12:53:23.068Z,0.40
2023-05-13T12:55:50.316Z,0.35
2023-05-13T12:58:19.811Z,0.30
2023-05-13T13:00:46.990Z,0.30
2023-05-13T13:03:14.681Z,0.40
2023-05-13T13:05:41.932Z,0.30
2023-05-13T13:08:09.194Z,0.40
2023-05-13T13:10:36.431Z,0.40
2023-05-13T13:13:03.632Z,0.40
2023-05-13T13:15:38.801Z,0.38
2023-05-13T13:18:06.573Z,0.50
2023-05-13T13:20:35.212Z,0.30
2023-05-13T13:23:02.708Z,0.30
2023-05-13T13:25:30.869Z,0.30
2023-05-13T13:27:58.192Z,0.30
2023-05-13T13:30:27.185Z,0.30
2023-05-13T13:32:54.415Z,0.30
2023-05-13T13:35:21.769Z,0.30
2023-05-13T13:37:49.453Z,0.35
2023-05-13T13:40:17.222Z,0.30
2023-05-13T13:42:45.212Z,0.30
2023-05-13T13:45:14.026Z,0.30
2023-05-13T13:47:41.569Z,0.40
2023-05-13T13:50:09.149Z,0.30
2023-05-13T13:52:36.891Z,0.30
2023-05-13T13:55:04.743Z,0.30
2023-05-13T13:57:31.853Z,0.30
2023-05-13T13:59:58.878Z,0.30
2023-05-13T14:02:26.137Z,0.30
2023-05-13T14:04:54.006Z,0.30
2023-05-13T14:07:21.550Z,0.30
2023-05-13T14:09:49.989Z,0.30
2023-05-13T14:12:17.333Z,0.30
2023-05-13T14:14:44.697Z,0.30
2023-05-13T14:17:14.508Z,0.30
2023-05-13T14:19:41.936Z,0.30
2023-05-13T14:22:12.640Z,0.30
2023-05-13T14:24:39.765Z,0.30
2023-05-13T14:27:14.573Z,0.30
2023-05-13T14:29:41.983Z,0.30
2023-05-13T14:32:09.247Z,0.30
2023-05-13T14:34:39.059Z,0.30
2023-05-13T14:37:10.128Z,0.30
2023-05-13T14:39:37.529Z,0.30
2023-05-13T14:42:04.948Z,0.30
2023-05-13T14:44:34.400Z,0.30
2023-05-13T14:47:01.765Z,0.30
2023-05-13T14:49:30.976Z,0.30
2023-05-13T14:51:58.937Z,0.30
2023-05-13T14:54:26.081Z,0.30
2023-05-13T14:56:54.960Z,0.25
2023-05-13T14:59:22.732Z,0.30
2023-05-13T15:01:50.091Z,0.20
2023-05-13T15:04:17.325Z,0.20
2023-05-13T15:06:44.669Z,0.30
2023-05-13T15:09:13.025Z,0.30
2023-05-13T15:11:44.238Z,0.20
2023-05-13T15:14:11.455Z,0.20
2023-05-13T15:16:38.592Z,0.13
2023-05-13T15:19:08.754Z,0.10
2023-05-13T15:21:37.944Z,0.10
2023-05-13T15:24:05.550Z,0.10
2023-05-13T15:26:34.104Z,0.10
2023-05-13T15:29:01.137Z,0.20
2023-05-13T15:31:28.991Z,0.30
2023-05-13T15:33:56.356Z,0.10
2023-05-13T15:36:23.604Z,0.10
2023-05-13T15:38:50.772Z,0.30
2023-05-13T15:41:21.652Z,0.10
2023-05-13T15:43:49.012Z,0.10
2023-05-13T15:46:22.122Z,0.10
2023-05-13T15:48:49.452Z,0.10
2023-05-13T15:51:16.673Z,0.10
2023-05-13T15:53:47.719Z,0.20
2023-05-13T15:56:15.062Z,0.10
2023-05-13T15:58:45.133Z,0.20
2023-05-13T16:03:53.686Z,0.20
2023-05-13T16:06:26.056Z,0.20
2023-05-13T16:08:56.315Z,0.20
2023-05-13T16:11:37.651Z,0.20
2023-05-13T16:14:08.819Z,0.20
2023-05-13T16:16:36.123Z,0.20
2023-05-13T16:19:08.561Z,0.20
2023-05-13T16:21:40.975Z,0.10
2023-05-13T16:24:08.335Z,0.10
2023-05-13T16:26:38.460Z,0.20
2023-05-13T16:29:43.771Z,0.20
2023-05-13T16:34:44.530Z,0.13
2023-05-13T16:45:34.654Z,0.20
2023-05-13T16:58:49.006Z,0.20
2023-05-13T16:59:28.147Z,0.10
2023-05-13T17:01:55.635Z,0.20
2023-05-13T17:04:23.110Z,0.20
2023-05-13T17:06:59.336Z,0.20
2023-05-13T17:09:27.045Z,0.20
2023-05-13T17:11:55.100Z,0.20
2023-05-13T17:14:22.676Z,0.20
2023-05-13T17:17:04.000Z,0.20
2023-05-13T17:19:39.930Z,0.20
2023-05-13T17:22:17.488Z,0.20
2023-05-13T17:24:46.926Z,0.20
2023-05-13T17:27:15.272Z,0.20
2023-05-13T17:29:42.358Z,0.20
2023-05-13T17:32:09.618Z,0.20
2023-05-13T17:34:36.752Z,0.20
2023-05-13T17:37:04.087Z,0.20
2023-05-13T17:39:31.198Z,0.20
2023-05-13T17:41:58.672Z,0.20
2023-05-13T17:44:26.920Z,0.20
2023-05-13T17:46:56.029Z,0.20
2023-05-13T17:49:25.501Z,0.20
2023-05-13T17:51:52.981Z,0.20
2023-05-13T17:54:20.162Z,0.20
2023-05-13T17:56:48.707Z,0.20
2023-05-13T17:59:16.506Z,0.20
2023-05-13T18:01:44.114Z,0.20
2023-05-13T18:04:11.345Z,0.20
2023-05-13T18:24:09.231Z,0.20
2023-05-13T18:26:36.892Z,0.25
2023-05-13T18:29:04.460Z,0.20
2023-05-13T18:31:37.554Z,0.20
2023-05-13T18:34:04.738Z,0.20
2023-05-13T18:36:36.259Z,0.20
2023-05-13T18:39:06.487Z,0.30
2023-05-13T18:41:36.594Z,0.25
2023-05-13T18:44:03.836Z,0.30
2023-05-13T18:46:34.675Z,0.30
2023-05-13T18:52:24.212Z,0.30
2023-05-13T18:54:53.196Z,0.20
2023-05-13T18:57:24.869Z,0.30
2023-05-13T18:59:52.972Z,0.20
2023-05-13T19:02:29.055Z,0.30
2023-05-13T19:05:10.300Z,0.30
2023-05-13T19:07:39.797Z,0.30
2023-05-13T19:10:10.478Z,0.30
2023-05-13T19:12:39.717Z,0.30
2023-05-13T19:15:07.463Z,0.30
2023-05-13T19:17:35.252Z,0.30
2023-05-13T19:20:02.774Z,0.30
2023-05-13T19:22:33.618Z,0.30
2023-05-13T19:25:00.788Z,0.30
2023-05-13T19:27:29.073Z,0.30
2023-05-13T19:29:56.114Z,0.30
2023-05-13T19:32:23.548Z,0.30
2023-05-13T19:34:50.746Z,0.30
2023-05-13T19:37:26.658Z,0.30
2023-05-13T19:39:53.728Z,0.30
2023-05-13T19:42:27.507Z,0.20
2023-05-13T19:44:54.562Z,0.30
2023-05-13T19:47:21.958Z,0.20
2023-05-13T19:49:54.610Z,0.30
2023-05-13T19:52:21.854Z,0.30
2023-05-13T19:54:49.967Z,0.30
2023-05-13T19:57:17.292Z,0.30
2023-05-13T19:59:45.484Z,0.20
2023-05-13T20:02:12.976Z,0.30
2023-05-13T20:04:40.132Z,0.30
2023-05-13T20:07:09.718Z,0.30
2023-05-13T20:09:37.266Z,0.32
2023-05-13T20:12:06.502Z,0.20
2023-05-13T20:14:48.134Z,0.30
2023-05-13T20:17:19.862Z,0.30
2023-05-13T20:19:49.562Z,0.30
2023-05-13T20:22:19.512Z,0.30
2023-05-13T20:24:48.087Z,0.30
2023-05-13T20:27:16.862Z,0.30
2023-05-13T20:29:47.070Z,0.30
2023-05-13T20:32:15.030Z,0.30
2023-05-13T20:34:42.903Z,0.30
2023-05-13T20:37:17.154Z,0.30
2023-05-13T20:39:46.525Z,0.30
2023-05-13T20:42:13.633Z,0.30
2023-05-13T20:44:40.922Z,0.30
2023-05-13T20:47:13.718Z,0.30
2023-05-13T20:49:44.014Z,0.30
2023-05-13T20:52:14.562Z,0.30
2023-05-13T20:54:47.848Z,0.30
2023-05-13T20:57:14.933Z,0.30
2023-05-13T20:59:42.170Z,0.30
2023-05-13T21:02:09.603Z,0.30
2023-05-13T21:04:36.810Z,0.30
2023-05-13T21:07:06.224Z,0.30
2023-05-13T21:09:33.624Z,0.30
2023-05-13T21:12:00.798Z,0.30
2023-05-13T21:14:27.877Z,0.30
2023-05-13T21:16:58.173Z,0.30
2023-05-13T21:19:25.564Z,0.30
2023-05-13T21:21:52.744Z,0.30
2023-05-13T21:24:26.691Z,0.30
2023-05-13T21:26:54.340Z,0.30
2023-05-13T21:29:23.524Z,0.32
2023-05-13T21:31:54.688Z,0.30
2023-05-13T21:34:22.042Z,0.30
2023-05-13T21:36:51.705Z,0.30
2023-05-13T21:39:21.798Z,0.30
2023-05-13T21:41:51.681Z,0.30
2023-05-13T21:44:18.805Z,0.30
2023-05-13T21:46:46.261Z,0.30
2023-05-13T21:49:13.391Z,0.30
2023-05-13T21:51:40.417Z,0.30
2023-05-13T21:54:07.520Z,0.30
2023-05-13T21:59:15.859Z,0.30
2023-05-13T22:01:42.976Z,0.40
2023-05-13T22:04:09.993Z,0.30
2023-05-13T22:06:37.277Z,0.30
2023-05-13T22:09:04.542Z,0.30
2023-05-13T22:11:31.641Z,0.30
2023-05-13T22:13:59.543Z,0.40
2023-05-13T22:16:26.870Z,0.40
2023-05-13T22:18:58.717Z,0.40
2023-05-13T22:21:26.264Z,0.30
2023-05-13T22:23:53.340Z,0.40
2023-05-13T22:26:20.449Z,0.35
2023-05-13T22:28:48.691Z,0.40
2023-05-13T22:31:16.872Z,0.30
2023-05-13T22:33:46.718Z,0.35
2023-05-13T22:36:14.353Z,0.40
2023-05-13T22:38:42.395Z,0.40
2023-05-13T22:41:09.404Z,0.30
2023-05-13T22:43:36.497Z,0.30
2023-05-13T22:46:03.875Z,0.30
2023-05-13T22:48:30.951Z,0.40
2023-05-13T22:50:58.585Z,0.40
2023-05-13T22:53:25.721Z,0.38
2023-05-13T22:55:53.160Z,0.40
2023-05-13T22:58:21.094Z,0.30
2023-05-13T23:00:49.410Z,0.40
2023-05-13T23:03:17.074Z,0.40
2023-05-13T23:05:44.468Z,0.40
2023-05-13T23:08:12.585Z,0.40
2023-05-13T23:10:39.671Z,0.40
2023-05-13T23:13:06.942Z,0.40
2023-05-13T23:15:37.026Z,0.30
2023-05-13T23:18:04.239Z,0.40
2023-05-13T23:20:31.456Z,0.40
2023-05-13T23:22:58.487Z,0.40
2023-05-13T23:25:25.790Z,0.40
2023-05-13T23:27:52.791Z,0.40
2023-05-13T23:30:19.888Z,0.40
2023-05-13T23:32:47.124Z,0.40
2023-05-13T23:35:14.736Z,0.40
2023-05-13T23:37:41.761Z,0.40
2023-05-13T23:40:09.273Z,0.40
2023-05-13T23:42:36.657Z,0.40
2023-05-13T23:45:04.020Z,0.40
2023-05-13T23:47:34.427Z,0.40
2023-05-13T23:50:33.782Z,0.40
2023-05-13T23:53:01.609Z,0.40
2023-05-13T23:55:29.121Z,0.40
2023-05-13T23:57:56.297Z,0.40
